Time;durP1;ratioP1;P1;durP2;ratioP2;P2;SDS_P1;SDS_P2;PMS_P1;PMS_P2;Temp;Humidity;BMP_temperature;BMP_pressure;BME280_temperature;BME280_humidity;BME280_pressure;Samples;Min_cycle;Max_cycle;Signal;HPM_P1;HPM_P2
2024/03/15 00:00:24;;;;;;;;;3.75;2.00;;;;;;;;5101082;28;8863;-79
2024/03/15 00:02:51;;;;;;;;;2.75;2.75;;;;;;;;5072779;28;8836;-79
2024/03/15 00:05:21;;;;;;;;;2.50;2.50;;;;;;;;5076886;28;8991;-83
2024/03/15 00:07:48;;;;;;;;;2.75;2.25;;;;;;;;5110108;28;8963;-78
2024/03/15 00:10:16;;;;;;;;;3.50;3.50;;;;;;;;5076634;28;8852;-80
2024/03/15 00:12:43;;;;;;;;;4.75;3.75;;;;;;;;5076503;28;8860;-79
2024/03/15 00:15:10;;;;;;;;;2.50;2.50;;;;;;;;5072438;28;8937;-79
2024/03/15 00:17:38;;;;;;;;;3.00;3.00;;;;;;;;5072416;28;8858;-78
2024/03/15 00:20:07;;;;;;;;;4.00;4.00;;;;;;;;5072898;28;8872;-78
2024/03/15 00:22:36;;;;;;;;;3.75;3.00;;;;;;;;5072450;28;8883;-79
2024/03/15 00:25:03;;;;;;;;;4.00;4.00;;;;;;;;5072766;28;8874;-78
2024/03/15 00:27:31;;;;;;;;;4.00;4.00;;;;;;;;5072052;28;8860;-78
2024/03/15 00:29:58;;;;;;;;;3.00;3.00;;;;;;;;5072256;28;8857;-79
2024/03/15 00:32:27;;;;;;;;;3.75;3.75;;;;;;;;5071530;28;8917;-79
2024/03/15 00:34:55;;;;;;;;;5.00;3.00;;;;;;;;5072848;28;8979;-79
2024/03/15 00:37:22;;;;;;;;;3.00;3.00;;;;;;;;5072335;28;8841;-81
2024/03/15 00:39:59;;;;;;;;;3.00;3.00;;;;;;;;5072717;28;8852;-81
2024/03/15 00:42:28;;;;;;;;;3.00;3.00;;;;;;;;5087418;28;8866;-79
2024/03/15 00:44:56;;;;;;;;;6.50;3.75;;;;;;;;5069245;28;9595;-78
2024/03/15 00:47:23;;;;;;;;;3.25;3.25;;;;;;;;5074693;28;8848;-79
2024/03/15 00:49:50;;;;;;;;;3.50;3.50;;;;;;;;5073391;28;9006;-78
2024/03/15 00:52:19;;;;;;;;;3.25;3.25;;;;;;;;5072625;28;8878;-79
2024/03/15 00:54:46;;;;;;;;;3.00;3.00;;;;;;;;5071291;28;8982;-80
2024/03/15 00:57:13;;;;;;;;;5.00;4.75;;;;;;;;5072083;28;8855;-81
2024/03/15 00:59:41;;;;;;;;;3.00;3.00;;;;;;;;5071896;28;8860;-80
2024/03/15 01:02:08;;;;;;;;;4.00;4.00;;;;;;;;5071723;28;8797;-79
2024/03/15 01:04:36;;;;;;;;;3.75;3.75;;;;;;;;5071175;28;8824;-79
2024/03/15 01:07:03;;;;;;;;;4.00;2.00;;;;;;;;5062202;28;8879;-79
2024/03/15 01:09:30;;;;;;;;;3.50;3.50;;;;;;;;5068944;28;8872;-79
2024/03/15 01:11:58;;;;;;;;;4.25;3.00;;;;;;;;5072034;28;8848;-78
2024/03/15 01:14:29;;;;;;;;;4.50;2.75;;;;;;;;5070874;28;9651;-78
2024/03/15 01:16:56;;;;;;;;;3.00;3.00;;;;;;;;5072160;28;8962;-79
2024/03/15 01:19:26;;;;;;;;;6.00;4.00;;;;;;;;5071531;28;8868;-79
2024/03/15 01:21:54;;;;;;;;;3.00;3.00;;;;;;;;5074282;28;8860;-76
2024/03/15 01:24:21;;;;;;;;;4.00;2.75;;;;;;;;5083814;28;8897;-75
2024/03/15 01:26:49;;;;;;;;;2.75;2.75;;;;;;;;5075098;28;8995;-76
2024/03/15 01:29:16;;;;;;;;;3.00;3.00;;;;;;;;5103452;28;8882;-77
2024/03/15 01:31:44;;;;;;;;;2.75;2.75;;;;;;;;5070771;28;8808;-79
2024/03/15 01:34:11;;;;;;;;;5.75;3.25;;;;;;;;5104909;28;8981;-79
2024/03/15 01:36:38;;;;;;;;;4.00;4.00;;;;;;;;5071699;28;9764;-79
2024/03/15 01:39:06;;;;;;;;;3.25;3.00;;;;;;;;5071578;28;9603;-81
2024/03/15 01:41:34;;;;;;;;;2.00;2.00;;;;;;;;5071591;28;8856;-80
2024/03/15 01:44:01;;;;;;;;;5.75;4.00;;;;;;;;5072412;28;8907;-81
2024/03/15 01:46:29;;;;;;;;;4.75;3.00;;;;;;;;5072839;28;8879;-81
2024/03/15 01:48:59;;;;;;;;;3.75;3.75;;;;;;;;5073848;28;8860;-82
2024/03/15 01:51:27;;;;;;;;;4.50;4.50;;;;;;;;5074972;28;9314;-82
2024/03/15 01:53:54;;;;;;;;;4.75;4.75;;;;;;;;5074436;28;8868;-81
2024/03/15 01:56:22;;;;;;;;;3.75;3.75;;;;;;;;5073600;28;8872;-80
2024/03/15 01:58:50;;;;;;;;;4.00;4.00;;;;;;;;5065052;28;8866;-81
2024/03/15 02:01:17;;;;;;;;;3.00;3.00;;;;;;;;5103764;28;8821;-79
2024/03/15 02:03:46;;;;;;;;;6.00;4.25;;;;;;;;5073302;28;8848;-78
2024/03/15 02:06:14;;;;;;;;;4.25;4.25;;;;;;;;5071149;28;8883;-79
2024/03/15 02:08:42;;;;;;;;;5.25;5.25;;;;;;;;5071230;28;8884;-79
2024/03/15 02:11:10;;;;;;;;;5.50;5.00;;;;;;;;5066964;28;8859;-81
2024/03/15 02:13:39;;;;;;;;;4.25;4.25;;;;;;;;5062934;28;8852;-79
2024/03/15 02:16:07;;;;;;;;;3.00;3.00;;;;;;;;5069960;28;9658;-79
2024/03/15 02:18:35;;;;;;;;;5.25;5.25;;;;;;;;5101713;28;8875;-80
2024/03/15 02:21:03;;;;;;;;;6.25;6.25;;;;;;;;5070348;28;8856;-78
2024/03/15 02:23:30;;;;;;;;;3.00;3.00;;;;;;;;5067011;28;8858;-80
2024/03/15 02:25:58;;;;;;;;;5.00;5.00;;;;;;;;5065067;28;8877;-79
2024/03/15 02:28:25;;;;;;;;;5.25;5.25;;;;;;;;5059920;28;8897;-79
2024/03/15 02:30:52;;;;;;;;;4.50;4.50;;;;;;;;5069737;28;8833;-78
2024/03/15 02:33:20;;;;;;;;;6.25;5.00;;;;;;;;5071614;28;8864;-77
2024/03/15 02:35:47;;;;;;;;;5.00;5.00;;;;;;;;5060742;28;8852;-81
2024/03/15 02:38:16;;;;;;;;;6.00;4.50;;;;;;;;5072629;28;8978;-79
2024/03/15 02:40:43;;;;;;;;;5.00;5.00;;;;;;;;5104088;28;8864;-79
2024/03/15 02:43:10;;;;;;;;;5.00;4.25;;;;;;;;5067338;28;8866;-80
2024/03/15 02:45:41;;;;;;;;;4.25;4.25;;;;;;;;5104224;28;8856;-80
2024/03/15 02:48:08;;;;;;;;;4.00;4.00;;;;;;;;5070637;28;8909;-80
2024/03/15 02:50:37;;;;;;;;;5.00;3.75;;;;;;;;5070167;28;8975;-78
2024/03/15 02:53:04;;;;;;;;;4.75;4.75;;;;;;;;5070503;28;8942;-80
2024/03/15 02:55:32;;;;;;;;;3.00;3.00;;;;;;;;5070484;28;8974;-79
2024/03/15 02:57:59;;;;;;;;;3.00;3.00;;;;;;;;5069579;28;8824;-79
2024/03/15 03:00:29;;;;;;;;;1.00;1.00;;;;;;;;5069307;28;8763;-79
2024/03/15 03:02:56;;;;;;;;;4.00;4.00;;;;;;;;5070352;28;8843;-79
2024/03/15 03:05:23;;;;;;;;;4.00;4.00;;;;;;;;5069848;28;9045;-79
2024/03/15 03:07:51;;;;;;;;;5.25;3.75;;;;;;;;5069179;28;8832;-79
2024/03/15 03:10:19;;;;;;;;;6.25;2.75;;;;;;;;5069985;28;8874;-81
2024/03/15 03:12:46;;;;;;;;;3.00;3.00;;;;;;;;5070358;28;8844;-78
2024/03/15 03:15:14;;;;;;;;;2.00;2.00;;;;;;;;5069926;28;8878;-79
2024/03/15 03:17:41;;;;;;;;;3.75;2.75;;;;;;;;5069875;28;8870;-79
2024/03/15 03:20:18;;;;;;;;;2.50;2.50;;;;;;;;5070131;28;8881;-78
2024/03/15 03:22:48;;;;;;;;;2.50;2.50;;;;;;;;5071556;28;8862;-78
2024/03/15 03:25:15;;;;;;;;;3.00;3.00;;;;;;;;5063223;28;8856;-81
2024/03/15 03:27:43;;;;;;;;;4.50;2.50;;;;;;;;5103335;28;8872;-79
2024/03/15 03:30:13;;;;;;;;;3.00;3.00;;;;;;;;5071647;28;9591;-82
2024/03/15 03:32:41;;;;;;;;;2.00;2.00;;;;;;;;5074867;28;8975;-84
2024/03/15 03:35:09;;;;;;;;;3.25;3.25;;;;;;;;5108720;28;8848;-83
2024/03/15 03:37:37;;;;;;;;;2.50;2.50;;;;;;;;5076232;28;8929;-82
2024/03/15 03:40:06;;;;;;;;;2.00;2.00;;;;;;;;5079275;28;8868;-82
2024/03/15 03:42:34;;;;;;;;;4.50;3.00;;;;;;;;5080252;28;8844;-83
2024/03/15 03:45:01;;;;;;;;;3.00;1.75;;;;;;;;5079976;28;8856;-82
2024/03/15 03:47:32;;;;;;;;;3.25;2.00;;;;;;;;5079564;28;8852;-80
2024/03/15 03:49:59;;;;;;;;;2.50;2.50;;;;;;;;5081058;28;8933;-79
2024/03/15 03:52:27;;;;;;;;;3.00;3.00;;;;;;;;5084673;28;8929;-80
2024/03/15 03:54:54;;;;;;;;;2.00;2.00;;;;;;;;5074525;28;9802;-80
2024/03/15 03:57:22;;;;;;;;;2.00;2.00;;;;;;;;5073066;28;8974;-78
2024/03/15 03:59:50;;;;;;;;;2.25;2.25;;;;;;;;5073496;28;8882;-79
2024/03/15 04:02:17;;;;;;;;;2.00;2.00;;;;;;;;5069357;28;8803;-78
2024/03/15 04:04:45;;;;;;;;;2.75;2.75;;;;;;;;5048999;28;8858;-78
2024/03/15 04:07:13;;;;;;;;;3.00;3.00;;;;;;;;5044586;28;8921;-77
2024/03/15 04:09:41;;;;;;;;;3.00;3.00;;;;;;;;5048819;28;8946;-79
2024/03/15 04:12:09;;;;;;;;;2.75;2.00;;;;;;;;5051415;28;9638;-79
2024/03/15 04:14:36;;;;;;;;;6.50;2.00;;;;;;;;5052282;28;8866;-79
2024/03/15 04:17:04;;;;;;;;;2.00;2.00;;;;;;;;5052805;28;8879;-79
2024/03/15 04:19:33;;;;;;;;;1.75;1.75;;;;;;;;5049778;28;8865;-79
2024/03/15 04:22:00;;;;;;;;;3.25;2.00;;;;;;;;5047618;28;8850;-80
2024/03/15 04:24:28;;;;;;;;;1.25;1.25;;;;;;;;5055262;28;9678;-79
2024/03/15 04:26:57;;;;;;;;;2.00;2.00;;;;;;;;5055041;28;8851;-79
2024/03/15 04:29:24;;;;;;;;;1.00;1.00;;;;;;;;5053154;28;8878;-79
2024/03/15 04:31:52;;;;;;;;;2.00;2.00;;;;;;;;5063849;28;8807;-79
2024/03/15 04:34:19;;;;;;;;;2.50;2.50;;;;;;;;5072034;28;8860;-78
2024/03/15 04:36:47;;;;;;;;;3.25;2.00;;;;;;;;5072394;28;9622;-80
2024/03/15 04:39:15;;;;;;;;;1.25;1.25;;;;;;;;5072694;28;8861;-78
2024/03/15 04:41:42;;;;;;;;;2.00;2.00;;;;;;;;5071345;28;8834;-79
2024/03/15 04:44:10;;;;;;;;;1.00;1.00;;;;;;;;5059810;28;8865;-78
2024/03/15 04:46:37;;;;;;;;;1.00;1.00;;;;;;;;5070781;28;9006;-79
2024/03/15 04:49:05;;;;;;;;;1.50;1.50;;;;;;;;5070555;28;8877;-78
2024/03/15 04:51:32;;;;;;;;;1.00;1.00;;;;;;;;5071316;28;8844;-78
2024/03/15 04:54:00;;;;;;;;;1.00;1.00;;;;;;;;5071229;28;8921;-78
2024/03/15 04:56:27;;;;;;;;;1.00;1.00;;;;;;;;5071826;28;8868;-79
2024/03/15 04:58:58;;;;;;;;;1.00;1.00;;;;;;;;5071555;28;8966;-79
2024/03/15 05:01:25;;;;;;;;;1.75;1.75;;;;;;;;5068241;28;8815;-79
2024/03/15 05:03:53;;;;;;;;;1.25;1.25;;;;;;;;5060170;28;8878;-79
2024/03/15 05:06:20;;;;;;;;;1.00;1.00;;;;;;;;5075046;28;8962;-77
2024/03/15 05:08:47;;;;;;;;;2.00;1.00;;;;;;;;5051026;28;8962;-79
2024/03/15 05:11:15;;;;;;;;;1.25;1.25;;;;;;;;5050853;28;9032;-78
2024/03/15 05:13:43;;;;;;;;;0.25;0.25;;;;;;;;5051809;28;8878;-78
2024/03/15 05:16:14;;;;;;;;;0.75;0.75;;;;;;;;5049583;28;8860;-81
2024/03/15 05:18:41;;;;;;;;;1.75;1.75;;;;;;;;5052792;28;8863;-80
2024/03/15 05:21:09;;;;;;;;;2.00;2.00;;;;;;;;5050848;28;8968;-80
2024/03/15 05:23:37;;;;;;;;;1.00;1.00;;;;;;;;5052259;28;8883;-79
2024/03/15 05:26:05;;;;;;;;;1.00;1.00;;;;;;;;5051749;28;8900;-79
2024/03/15 05:28:33;;;;;;;;;1.75;1.75;;;;;;;;5053762;28;8859;-79
2024/03/15 05:31:03;;;;;;;;;0.75;0.75;;;;;;;;5064106;28;8833;-80
2024/03/15 05:33:31;;;;;;;;;1.25;1.25;;;;;;;;5050713;28;8865;-80
2024/03/15 05:36:01;;;;;;;;;1.00;1.00;;;;;;;;5059261;28;8987;-82
2024/03/15 05:38:30;;;;;;;;;1.00;1.00;;;;;;;;5059444;28;8855;-78
2024/03/15 05:40:58;;;;;;;;;0.00;0.00;;;;;;;;5052797;28;8878;-78
2024/03/15 05:43:28;;;;;;;;;1.25;1.25;;;;;;;;5051756;28;8867;-78
2024/03/15 05:46:04;;;;;;;;;2.50;2.00;;;;;;;;5071135;28;8875;-78
2024/03/15 05:48:33;;;;;;;;;1.50;0.75;;;;;;;;5055562;28;8874;-77
2024/03/15 05:51:01;;;;;;;;;1.00;1.00;;;;;;;;5050840;28;8858;-78
2024/03/15 05:53:29;;;;;;;;;1.00;1.00;;;;;;;;5052968;28;8837;-79
2024/03/15 05:55:57;;;;;;;;;1.00;1.00;;;;;;;;5069433;28;8853;-78
2024/03/15 05:58:24;;;;;;;;;1.00;1.00;;;;;;;;5051960;28;8985;-78
2024/03/15 06:00:54;;;;;;;;;1.00;1.00;;;;;;;;5056101;28;8846;-77
2024/03/15 06:03:22;;;;;;;;;1.00;1.00;;;;;;;;5070235;28;9630;-80
2024/03/15 06:05:50;;;;;;;;;1.50;1.00;;;;;;;;5069831;28;8898;-79
2024/03/15 06:08:18;;;;;;;;;1.00;1.00;;;;;;;;5070292;28;8998;-79
2024/03/15 06:10:47;;;;;;;;;2.00;0.25;;;;;;;;5072582;28;9026;-78
2024/03/15 06:13:14;;;;;;;;;2.00;0.75;;;;;;;;5070449;28;9662;-75
2024/03/15 06:15:43;;;;;;;;;1.00;1.00;;;;;;;;5071370;28;8900;-78
2024/03/15 06:18:10;;;;;;;;;2.50;2.25;;;;;;;;5076734;28;8850;-77
2024/03/15 06:20:37;;;;;;;;;2.25;2.25;;;;;;;;5081618;28;8856;-77
2024/03/15 06:23:06;;;;;;;;;1.00;1.00;;;;;;;;5070598;28;8859;-78
2024/03/15 06:25:35;;;;;;;;;0.75;0.75;;;;;;;;5075509;28;8933;-80
2024/03/15 06:28:17;;;;;;;;;;;;;;;;;;;;;
2024/03/15 06:30:46;;;;;;;;;1.00;1.00;;;;;;;;5087546;28;8773;-78
2024/03/15 06:33:16;;;;;;;;;1.00;1.00;;;;;;;;5074399;28;8864;-79
2024/03/15 06:35:55;;;;;;;;;1.00;1.00;;;;;;;;5073070;28;8853;-79
2024/03/15 06:38:40;;;;;;;;;1.75;1.75;;;;;;;;5074325;28;8852;-77
2024/03/15 06:41:13;;;;;;;;;1.25;1.00;;;;;;;;5075727;28;8855;-78
2024/03/15 06:43:45;;;;;;;;;1.25;1.25;;;;;;;;5072506;28;8848;-79
2024/03/15 06:46:24;;;;;;;;;1.00;1.00;;;;;;;;5072381;28;8848;-77
2024/03/15 06:48:59;;;;;;;;;0.00;0.00;;;;;;;;5074354;28;8852;-79
2024/03/15 06:54:15;;;;;;;;;1.00;1.00;;;;;;;;5064292;28;9619;-78
2024/03/15 06:57:03;;;;;;;;;;;;;;;;;;;;;
2024/03/15 07:00:00;;;;;;;;;2.00;0.25;;;;;;;;5073074;28;8828;-79
2024/03/15 07:05:34;;;;;;;;;0.00;0.00;;;;;;;;5066723;28;8860;-78
2024/03/15 07:08:06;;;;;;;;;1.00;1.00;;;;;;;;5075006;28;8844;-77
2024/03/15 07:10:34;;;;;;;;;1.00;1.00;;;;;;;;5076001;28;8871;-78
2024/03/15 07:13:02;;;;;;;;;1.00;1.00;;;;;;;;5075933;28;8848;-79
2024/03/15 07:15:30;;;;;;;;;2.00;1.00;;;;;;;;5076704;28;8853;-78
2024/03/15 07:18:12;;;;;;;;;0.50;0.50;;;;;;;;5076111;28;8860;-78
2024/03/15 07:20:45;;;;;;;;;0.50;0.50;;;;;;;;5075716;28;8860;-78
2024/03/15 07:23:15;;;;;;;;;1.50;0.00;;;;;;;;5080606;28;8856;-77
2024/03/15 07:25:43;;;;;;;;;0.00;0.00;;;;;;;;5075986;28;9635;-78
2024/03/15 07:28:10;;;;;;;;;0.00;0.00;;;;;;;;5076725;28;8849;-78
2024/03/15 07:30:39;;;;;;;;;0.25;0.25;;;;;;;;5072672;28;8799;-78
2024/03/15 07:33:18;;;;;;;;;0.00;0.00;;;;;;;;5073275;28;8883;-79
2024/03/15 07:35:53;;;;;;;;;0.00;0.00;;;;;;;;5078206;28;8848;-78
2024/03/15 07:38:22;;;;;;;;;1.00;1.00;;;;;;;;5078276;28;8860;-78
2024/03/15 07:40:50;;;;;;;;;2.00;0.25;;;;;;;;5072861;28;8836;-78
2024/03/15 07:43:23;;;;;;;;;1.00;1.00;;;;;;;;5074556;28;8883;-79
2024/03/15 07:45:54;;;;;;;;;0.50;0.50;;;;;;;;5075189;28;8840;-81
2024/03/15 07:48:22;;;;;;;;;0.00;0.00;;;;;;;;5073887;28;8840;-79
2024/03/15 07:50:52;;;;;;;;;0.00;0.00;;;;;;;;5073294;28;8882;-80
2024/03/15 07:53:19;;;;;;;;;0.25;0.25;;;;;;;;5072001;28;8856;-78
2024/03/15 07:55:50;;;;;;;;;1.75;0.00;;;;;;;;5073106;28;8856;-78
2024/03/15 07:58:17;;;;;;;;;0.00;0.00;;;;;;;;5073912;28;8939;-78
2024/03/15 08:00:44;;;;;;;;;0.00;0.00;;;;;;;;5068674;28;8790;-78
2024/03/15 08:03:12;;;;;;;;;0.75;0.75;;;;;;;;5054938;28;8875;-77
2024/03/15 08:05:39;;;;;;;;;0.75;0.00;;;;;;;;5051937;28;8961;-77
2024/03/15 08:08:07;;;;;;;;;0.00;0.00;;;;;;;;5050826;28;8965;-77
2024/03/15 08:10:34;;;;;;;;;0.00;0.00;;;;;;;;5052270;28;9613;-77
2024/03/15 08:13:02;;;;;;;;;2.00;0.25;;;;;;;;5049496;28;8972;-74
2024/03/15 08:15:32;;;;;;;;;0.00;0.00;;;;;;;;5059183;28;8903;-74
2024/03/15 08:17:59;;;;;;;;;1.00;0.75;;;;;;;;5055425;28;8863;-75
2024/03/15 08:20:27;;;;;;;;;0.00;0.00;;;;;;;;5052395;28;8881;-76
2024/03/15 08:22:55;;;;;;;;;0.00;0.00;;;;;;;;5067895;28;8847;-77
2024/03/15 08:25:26;;;;;;;;;0.00;0.00;;;;;;;;5053970;28;8885;-76
2024/03/15 08:27:53;;;;;;;;;0.50;0.50;;;;;;;;5087239;28;8811;-76
2024/03/15 08:30:22;;;;;;;;;1.00;1.00;;;;;;;;5053427;28;8843;-76
2024/03/15 08:32:49;;;;;;;;;0.75;0.75;;;;;;;;5061520;28;8864;-77
2024/03/15 08:35:20;;;;;;;;;1.00;1.00;;;;;;;;5071321;28;8979;-77
2024/03/15 08:37:50;;;;;;;;;0.50;0.50;;;;;;;;5071910;28;8861;-77
2024/03/15 08:40:21;;;;;;;;;0.50;0.50;;;;;;;;5071812;28;8890;-75
2024/03/15 08:42:48;;;;;;;;;0.00;0.00;;;;;;;;5072884;28;9918;-78
2024/03/15 08:45:20;;;;;;;;;0.50;0.00;;;;;;;;5071515;28;8878;-76
2024/03/15 08:47:47;;;;;;;;;1.50;0.00;;;;;;;;5072974;28;8856;-76
2024/03/15 08:50:14;;;;;;;;;2.00;0.00;;;;;;;;5071242;28;8857;-76
2024/03/15 08:52:41;;;;;;;;;0.25;0.25;;;;;;;;5068011;28;8855;-77
2024/03/15 08:55:10;;;;;;;;;0.75;0.75;;;;;;;;5070810;28;8990;-77
2024/03/15 08:57:38;;;;;;;;;0.75;0.75;;;;;;;;5072468;28;8844;-76
2024/03/15 09:00:11;;;;;;;;;2.50;1.00;;;;;;;;5071173;28;8860;-78
2024/03/15 09:02:38;;;;;;;;;3.00;2.00;;;;;;;;5060918;28;8847;-77
2024/03/15 09:05:08;;;;;;;;;3.00;1.00;;;;;;;;5051543;28;8994;-77
2024/03/15 09:07:36;;;;;;;;;1.25;0.00;;;;;;;;5053704;28;8862;-77
2024/03/15 09:10:07;;;;;;;;;0.75;0.75;;;;;;;;5052644;28;8859;-77
2024/03/15 09:12:37;;;;;;;;;0.00;0.00;;;;;;;;5054160;28;8966;-78
2024/03/15 09:15:07;;;;;;;;;1.00;1.00;;;;;;;;5053933;28;8928;-76
2024/03/15 09:17:35;;;;;;;;;0.00;0.00;;;;;;;;5054236;28;8882;-77
2024/03/15 09:20:12;;;;;;;;;1.50;0.25;;;;;;;;5053417;28;8851;-76
2024/03/15 09:22:40;;;;;;;;;1.50;0.00;;;;;;;;5053123;28;8908;-76
2024/03/15 09:25:18;;;;;;;;;2.00;1.00;;;;;;;;5047287;28;8854;-76
2024/03/15 09:27:48;;;;;;;;;2.00;0.25;;;;;;;;5050414;28;8854;-76
2024/03/15 09:30:18;;;;;;;;;0.25;0.25;;;;;;;;5048851;28;8992;-76
2024/03/15 09:32:48;;;;;;;;;0.00;0.00;;;;;;;;5071791;28;8824;-76
2024/03/15 09:35:17;;;;;;;;;1.25;0.50;;;;;;;;5070696;28;8848;-76
2024/03/15 09:37:49;;;;;;;;;3.75;1.25;;;;;;;;5071171;28;8852;-77
2024/03/15 09:40:17;;;;;;;;;2.50;1.00;;;;;;;;5071008;28;9540;-77
2024/03/15 09:42:47;;;;;;;;;6.00;0.25;;;;;;;;5070282;28;8876;-77
2024/03/15 09:45:16;;;;;;;;;1.00;1.00;;;;;;;;5070672;28;8848;-78
2024/03/15 09:47:43;;;;;;;;;0.00;0.00;;;;;;;;5071997;28;8860;-77
2024/03/15 09:50:11;;;;;;;;;3.25;1.75;;;;;;;;5071102;28;8870;-77
2024/03/15 09:52:40;;;;;;;;;4.25;2.25;;;;;;;;5073106;28;8925;-76
2024/03/15 09:55:16;;;;;;;;;0.00;0.00;;;;;;;;5071526;28;8960;-77
2024/03/15 09:57:44;;;;;;;;;0.75;0.00;;;;;;;;5072600;28;8948;-77
2024/03/15 10:00:13;;;;;;;;;1.00;1.00;;;;;;;;5068761;28;8848;-77
2024/03/15 10:02:41;;;;;;;;;2.75;0.25;;;;;;;;5070578;28;8878;-76
2024/03/15 10:05:08;;;;;;;;;0.00;0.00;;;;;;;;5069185;28;8828;-77
2024/03/15 10:07:36;;;;;;;;;0.50;0.50;;;;;;;;5070673;28;8849;-78
2024/03/15 10:10:06;;;;;;;;;3.33;0.33;;;;;;;;5069651;28;8848;-78
2024/03/15 10:12:35;;;;;;;;;0.25;0.25;;;;;;;;5071088;28;8832;-77
2024/03/15 10:15:08;;;;;;;;;1.00;1.00;;;;;;;;5072401;28;8836;-77
2024/03/15 10:17:38;;;;;;;;;3.00;1.75;;;;;;;;5071256;28;8848;-77
2024/03/15 10:20:12;;;;;;;;;1.00;1.00;;;;;;;;5071363;28;8868;-77
2024/03/15 10:22:40;;;;;;;;;0.00;0.00;;;;;;;;5071528;28;9710;-78
2024/03/15 10:25:15;;;;;;;;;1.25;1.25;;;;;;;;5070544;28;8878;-76
2024/03/15 10:27:43;;;;;;;;;2.00;0.25;;;;;;;;5070697;28;8876;-76
2024/03/15 10:30:14;;;;;;;;;4.50;0.00;;;;;;;;5069210;28;8898;-77
2024/03/15 10:32:46;;;;;;;;;0.25;0.25;;;;;;;;5070105;28;8836;-77
2024/03/15 10:35:13;;;;;;;;;1.50;0.50;;;;;;;;5066406;28;8905;-76
2024/03/15 10:37:42;;;;;;;;;1.50;1.00;;;;;;;;5065100;28;9713;-78
2024/03/15 10:40:15;;;;;;;;;2.00;0.25;;;;;;;;5072413;28;8840;-77
2024/03/15 10:42:44;;;;;;;;;0.25;0.00;;;;;;;;5071657;28;8852;-77
2024/03/15 10:45:14;;;;;;;;;0.25;0.25;;;;;;;;5070187;28;9242;-77
2024/03/15 10:47:41;;;;;;;;;1.50;0.75;;;;;;;;5070806;28;9374;-76
2024/03/15 10:50:11;;;;;;;;;1.00;1.00;;;;;;;;5070422;28;8979;-77
2024/03/15 10:52:40;;;;;;;;;1.50;0.75;;;;;;;;5071570;28;8852;-78
2024/03/15 10:55:12;;;;;;;;;4.00;1.00;;;;;;;;5072431;28;8945;-76
2024/03/15 10:57:41;;;;;;;;;2.25;1.00;;;;;;;;5073171;28;8852;-77
2024/03/15 11:00:14;;;;;;;;;1.00;1.00;;;;;;;;5071903;27;8856;-77
2024/03/15 11:02:43;;;;;;;;;0.40;0.40;;;;;;;;5065554;28;9392;-77
2024/03/15 11:05:14;;;;;;;;;0.00;0.00;;;;;;;;5072540;28;8852;-78
2024/03/15 11:07:41;;;;;;;;;1.00;1.00;;;;;;;;5077204;28;8862;-76
2024/03/15 11:10:10;;;;;;;;;0.80;0.80;;;;;;;;5085239;28;8991;-77
2024/03/15 11:12:38;;;;;;;;;1.80;0.00;;;;;;;;5064328;28;8832;-78
2024/03/15 11:15:16;;;;;;;;;2.60;0.20;;;;;;;;5068937;28;8837;-75
2024/03/15 11:17:43;;;;;;;;;1.00;1.00;;;;;;;;5070585;28;8872;-79
2024/03/15 11:20:12;;;;;;;;;0.50;0.00;;;;;;;;5070242;28;8890;-78
2024/03/15 11:22:40;;;;;;;;;0.50;0.00;;;;;;;;5068539;28;8985;-78
2024/03/15 11:25:07;;;;;;;;;0.00;0.00;;;;;;;;5069189;28;8844;-76
2024/03/15 11:27:56;;;;;;;;;0.50;0.00;;;;;;;;5069259;28;8853;-79
2024/03/15 11:30:25;;;;;;;;;1.75;1.00;;;;;;;;5067455;28;8770;-79
2024/03/15 11:32:53;;;;;;;;;1.00;1.00;;;;;;;;5082423;28;8892;-79
2024/03/15 11:35:21;;;;;;;;;0.00;0.00;;;;;;;;5071403;28;8983;-78
2024/03/15 11:37:54;;;;;;;;;0.00;0.00;;;;;;;;5071025;28;8864;-79
2024/03/15 11:40:23;;;;;;;;;0.25;0.25;;;;;;;;5074178;28;8848;-77
2024/03/15 11:42:51;;;;;;;;;1.00;1.00;;;;;;;;5073418;28;8840;-76
2024/03/15 11:45:18;;;;;;;;;0.00;0.00;;;;;;;;5069451;28;8900;-76
2024/03/15 11:47:47;;;;;;;;;0.25;0.25;;;;;;;;5069326;28;8872;-76
2024/03/15 11:50:14;;;;;;;;;0.25;0.25;;;;;;;;5069491;28;8860;-77
2024/03/15 11:52:42;;;;;;;;;1.00;1.00;;;;;;;;5074737;28;8860;-75
2024/03/15 11:55:11;;;;;;;;;2.00;0.75;;;;;;;;5089337;28;8872;-77
2024/03/15 11:57:40;;;;;;;;;0.00;0.00;;;;;;;;5080172;28;8863;-78
2024/03/15 12:00:11;;;;;;;;;0.00;0.00;;;;;;;;5074440;28;9611;-80
2024/03/15 12:02:39;;;;;;;;;0.00;0.00;;;;;;;;5075112;28;8844;-78
2024/03/15 12:05:08;;;;;;;;;0.00;0.00;;;;;;;;5091151;28;8959;-76
2024/03/15 12:07:36;;;;;;;;;0.80;0.00;;;;;;;;5074820;28;8852;-78
2024/03/15 12:10:04;;;;;;;;;0.00;0.00;;;;;;;;5073740;28;8881;-79
2024/03/15 12:12:31;;;;;;;;;0.00;0.00;;;;;;;;5072716;28;8848;-78
2024/03/15 12:15:02;;;;;;;;;1.00;1.00;;;;;;;;5072428;28;8844;-76
2024/03/15 12:17:29;;;;;;;;;0.50;0.50;;;;;;;;5072391;28;8852;-76
2024/03/15 12:19:57;;;;;;;;;0.00;0.00;;;;;;;;5062133;28;8883;-77
2024/03/15 12:22:25;;;;;;;;;0.00;0.00;;;;;;;;5073030;28;8864;-77
2024/03/15 12:24:55;;;;;;;;;0.00;0.00;;;;;;;;5073202;28;8868;-78
2024/03/15 12:27:23;;;;;;;;;0.20;0.20;;;;;;;;5073353;28;8866;-79
2024/03/15 12:29:50;;;;;;;;;1.75;0.75;;;;;;;;5073321;28;8860;-78
2024/03/15 12:32:23;;;;;;;;;1.00;1.00;;;;;;;;5071519;28;9256;-78
2024/03/15 12:34:50;;;;;;;;;0.20;0.00;;;;;;;;5073597;28;8895;-77
2024/03/15 12:37:25;;;;;;;;;0.75;0.00;;;;;;;;5072649;28;8914;-78
2024/03/15 12:39:53;;;;;;;;;1.00;0.25;;;;;;;;5077040;28;8899;-77
2024/03/15 12:42:20;;;;;;;;;1.25;1.00;;;;;;;;5074660;28;8852;-78
2024/03/15 12:44:47;;;;;;;;;1.00;1.00;;;;;;;;5075944;28;8938;-79
2024/03/15 12:47:18;;;;;;;;;1.00;1.00;;;;;;;;5073899;28;9022;-79
2024/03/15 12:49:45;;;;;;;;;2.50;1.00;;;;;;;;5075410;28;10044;-78
2024/03/15 12:52:13;;;;;;;;;2.00;1.75;;;;;;;;5074502;28;8841;-78
2024/03/15 12:54:40;;;;;;;;;1.75;1.00;;;;;;;;5074478;28;8868;-77
2024/03/15 12:57:08;;;;;;;;;2.75;1.00;;;;;;;;5073412;28;8855;-78
2024/03/15 12:59:35;;;;;;;;;1.00;1.00;;;;;;;;5089924;28;8879;-77
2024/03/15 13:02:03;;;;;;;;;2.50;1.00;;;;;;;;5070021;28;8803;-77
2024/03/15 13:04:33;;;;;;;;;3.50;1.25;;;;;;;;5071734;28;8940;-78
2024/03/15 13:07:00;;;;;;;;;2.75;0.50;;;;;;;;5071832;28;8843;-78
2024/03/15 13:09:28;;;;;;;;;1.00;1.00;;;;;;;;5071105;28;9750;-77
2024/03/15 13:11:59;;;;;;;;;3.00;1.00;;;;;;;;5060541;28;8899;-77
2024/03/15 13:14:30;;;;;;;;;2.00;1.00;;;;;;;;5071852;28;8842;-77
2024/03/15 13:16:57;;;;;;;;;1.00;1.00;;;;;;;;5072092;28;8840;-77
2024/03/15 13:19:26;;;;;;;;;1.00;1.00;;;;;;;;5071035;28;8888;-77
2024/03/15 13:21:54;;;;;;;;;1.00;1.00;;;;;;;;5072333;28;8867;-77
2024/03/15 13:24:21;;;;;;;;;0.25;0.25;;;;;;;;5071223;28;9627;-78
2024/03/15 13:26:48;;;;;;;;;3.25;1.00;;;;;;;;5072085;28;8866;-78
2024/03/15 13:29:17;;;;;;;;;1.25;1.00;;;;;;;;5072520;28;8894;-77
2024/03/15 13:31:45;;;;;;;;;1.75;1.75;;;;;;;;5073586;28;8821;-76
2024/03/15 13:34:12;;;;;;;;;2.00;0.50;;;;;;;;5071131;28;9689;-77
2024/03/15 13:36:39;;;;;;;;;0.00;0.00;;;;;;;;5070973;28;8840;-81
2024/03/15 13:39:20;;;;;;;;;3.25;0.00;;;;;;;;5071005;28;8837;-78
2024/03/15 13:41:53;;;;;;;;;1.00;1.00;;;;;;;;5072732;28;8852;-78
2024/03/15 13:44:23;;;;;;;;;2.50;0.00;;;;;;;;5071783;28;8960;-77
2024/03/15 13:46:50;;;;;;;;;1.25;1.00;;;;;;;;5071533;28;9670;-78
2024/03/15 13:49:19;;;;;;;;;1.00;1.00;;;;;;;;5070027;28;8941;-78
2024/03/15 13:51:46;;;;;;;;;0.75;0.75;;;;;;;;5070782;28;8872;-78
2024/03/15 13:54:14;;;;;;;;;1.00;1.00;;;;;;;;5070139;28;8870;-78
2024/03/15 13:56:42;;;;;;;;;3.25;1.00;;;;;;;;5070008;28;8844;-77
2024/03/15 13:59:11;;;;;;;;;1.25;0.25;;;;;;;;5070483;28;8838;-77
2024/03/15 14:01:50;;;;;;;;;2.75;1.00;;;;;;;;5070386;28;8788;-77
2024/03/15 14:04:21;;;;;;;;;1.75;1.75;;;;;;;;5072625;28;8882;-78
2024/03/15 14:06:49;;;;;;;;;1.25;0.75;;;;;;;;5071112;28;8842;-77
2024/03/15 14:09:29;;;;;;;;;1.00;1.00;;;;;;;;5070302;28;8872;-78
2024/03/15 14:11:56;;;;;;;;;0.60;0.60;;;;;;;;5073183;28;8840;-78
2024/03/15 14:14:24;;;;;;;;;0.80;0.80;;;;;;;;5071467;28;8887;-78
2024/03/15 14:16:51;;;;;;;;;1.60;0.40;;;;;;;;5076900;28;8871;-79
2024/03/15 14:19:19;;;;;;;;;0.00;0.00;;;;;;;;5090854;28;8863;-77
2024/03/15 14:21:46;;;;;;;;;0.00;0.00;;;;;;;;5077045;28;8880;-79
2024/03/15 14:24:13;;;;;;;;;0.00;0.00;;;;;;;;5071256;28;8833;-79
2024/03/15 14:26:41;;;;;;;;;0.40;0.00;;;;;;;;5071885;28;8844;-79
2024/03/15 14:29:09;;;;;;;;;1.40;0.00;;;;;;;;5071701;28;8844;-78
2024/03/15 14:31:37;;;;;;;;;0.00;0.00;;;;;;;;5069003;28;8818;-78
2024/03/15 14:34:07;;;;;;;;;2.00;0.00;;;;;;;;5103702;28;8849;-78
2024/03/15 14:36:34;;;;;;;;;1.60;0.00;;;;;;;;5073675;28;8983;-78
2024/03/15 14:39:01;;;;;;;;;1.00;0.00;;;;;;;;5072801;28;8860;-78
2024/03/15 14:41:32;;;;;;;;;0.80;0.00;;;;;;;;5073416;28;8898;-79
2024/03/15 14:43:59;;;;;;;;;0.00;0.00;;;;;;;;5074212;28;8987;-79
2024/03/15 14:46:26;;;;;;;;;0.00;0.00;;;;;;;;5072418;28;9011;-79
2024/03/15 14:48:58;;;;;;;;;1.40;0.00;;;;;;;;5074428;28;8857;-80
2024/03/15 14:51:26;;;;;;;;;1.60;0.40;;;;;;;;5071357;28;8876;-80
2024/03/15 14:53:53;;;;;;;;;0.20;0.20;;;;;;;;5058572;28;8856;-80
2024/03/15 14:56:20;;;;;;;;;2.80;1.40;;;;;;;;5069472;28;8856;-80
2024/03/15 14:58:48;;;;;;;;;0.40;0.00;;;;;;;;5069696;28;8852;-81
2024/03/15 15:01:15;;;;;;;;;1.00;1.00;;;;;;;;5068948;28;9725;-80
2024/03/15 15:03:43;;;;;;;;;1.00;1.00;;;;;;;;5070299;28;8844;-79
2024/03/15 15:06:10;;;;;;;;;1.40;0.00;;;;;;;;5069185;28;9014;-81
2024/03/15 15:08:37;;;;;;;;;0.00;0.00;;;;;;;;5070196;28;8876;-79
2024/03/15 15:11:05;;;;;;;;;3.25;0.00;;;;;;;;5069667;28;8878;-80
2024/03/15 15:13:34;;;;;;;;;0.00;0.00;;;;;;;;5071558;28;8857;-80